createdAt,value
2023-03-20T00:00:31.499Z,8.33
2023-03-20T00:03:19.639Z,8.34
2023-03-20T00:05:47.303Z,8.35
2023-03-20T00:08:14.450Z,8.37
2023-03-20T00:10:44.060Z,8.36
2023-03-20T00:13:21.293Z,8.37
2023-03-20T00:15:48.543Z,8.35
2023-03-20T00:18:23.339Z,8.32
2023-03-20T00:20:51.807Z,8.28
2023-03-20T00:23:19.674Z,8.24
2023-03-20T00:25:48.153Z,8.19
2023-03-20T00:28:32.664Z,8.15
2023-03-20T00:31:00.288Z,8.07
2023-03-20T00:33:28.447Z,8.02
2023-03-20T00:35:56.206Z,7.98
2023-03-20T00:38:23.654Z,7.96
2023-03-20T00:40:50.654Z,7.93
2023-03-20T00:43:20.360Z,7.92
2023-03-20T00:45:48.388Z,7.91
2023-03-20T00:48:17.034Z,7.91
2023-03-20T00:50:45.626Z,7.89
2023-03-20T00:53:14.338Z,7.90
2023-03-20T00:55:42.317Z,7.91
2023-03-20T00:58:14.458Z,7.89
2023-03-20T01:00:44.032Z,7.89
2023-03-20T01:03:18.771Z,7.88
2023-03-20T01:05:48.579Z,7.88
2023-03-20T01:08:21.427Z,7.88
2023-03-20T01:10:51.837Z,7.88
2023-03-20T01:13:25.305Z,7.87
2023-03-20T01:15:53.466Z,7.88
2023-03-20T01:18:21.984Z,7.88
2023-03-20T01:20:49.915Z,7.88
2023-03-20T01:23:20.832Z,7.88
2023-03-20T01:25:48.400Z,7.85
2023-03-20T01:28:18.579Z,7.81
2023-03-20T01:30:48.749Z,7.78
2023-03-20T01:33:18.182Z,7.75
2023-03-20T01:35:48.033Z,7.72
2023-03-20T01:38:19.981Z,7.70
2023-03-20T01:40:53.473Z,7.68
2023-03-20T01:43:24.846Z,7.64
2023-03-20T01:46:00.663Z,7.60
2023-03-20T01:48:38.086Z,7.54
2023-03-20T01:51:04.005Z,7.49
2023-03-20T01:53:32.094Z,7.42
2023-03-20T01:56:02.105Z,7.34
2023-03-20T01:58:58.403Z,7.26
2023-03-20T02:01:29.048Z,7.18
2023-03-20T02:03:59.558Z,7.09
2023-03-20T02:06:55.989Z,7.00
2023-03-20T02:09:31.780Z,6.93
2023-03-20T02:12:00.781Z,6.86
2023-03-20T02:14:29.571Z,6.75
2023-03-20T02:17:08.267Z,6.68
2023-03-20T02:20:04.103Z,6.61
2023-03-20T02:23:01.149Z,6.55
2023-03-20T02:26:12.553Z,6.50
2023-03-20T02:29:18.815Z,6.45
2023-03-20T02:32:23.178Z,6.44
2023-03-20T02:35:28.374Z,6.43
2023-03-20T02:38:22.070Z,6.42
2023-03-20T02:41:00.286Z,6.40
2023-03-20T02:43:34.837Z,6.37
2023-03-20T02:46:23.980Z,6.36
2023-03-20T02:48:58.281Z,6.35
2023-03-20T02:51:34.961Z,6.36
2023-03-20T02:54:19.909Z,6.36
2023-03-20T02:57:00.020Z,6.36
2023-03-20T02:59:34.458Z,6.34
2023-03-20T03:02:07.082Z,6.32
2023-03-20T03:04:39.889Z,6.30
2023-03-20T03:07:14.784Z,6.28
2023-03-20T03:09:47.412Z,6.27
2023-03-20T03:12:18.407Z,6.27
2023-03-20T03:14:49.329Z,6.27
2023-03-20T03:17:23.585Z,6.27
2023-03-20T03:19:55.107Z,6.29
2023-03-20T03:22:24.569Z,6.30
2023-03-20T03:24:53.925Z,6.31
2023-03-20T03:27:26.300Z,6.32
2023-03-20T03:29:57.220Z,6.35
2023-03-20T03:32:30.727Z,6.35
2023-03-20T03:34:59.916Z,6.36
2023-03-20T03:37:38.377Z,6.36
2023-03-20T03:40:14.946Z,6.37
2023-03-20T03:42:49.936Z,6.39
2023-03-20T03:45:21.405Z,6.39
2023-03-20T03:47:55.863Z,6.39
2023-03-20T03:50:29.982Z,6.36
2023-03-20T03:53:01.891Z,6.34
2023-03-20T03:55:37.261Z,6.34
2023-03-20T03:58:14.791Z,6.33
2023-03-20T04:00:46.575Z,6.32
2023-03-20T04:03:15.677Z,6.30
2023-03-20T04:05:46.308Z,6.31
2023-03-20T04:08:16.335Z,6.30
2023-03-20T04:10:43.723Z,6.31
2023-03-20T04:13:11.961Z,6.32
2023-03-20T04:15:39.623Z,6.34
2023-03-20T04:18:08.548Z,6.35
2023-03-20T04:20:38.313Z,6.35
2023-03-20T04:23:06.407Z,6.37
2023-03-20T04:25:34.372Z,6.38
2023-03-20T04:28:01.928Z,6.38
2023-03-20T04:31:05.295Z,6.39
2023-03-20T04:33:49.477Z,6.38
2023-03-20T04:36:31.100Z,6.37
2023-03-20T04:39:08.644Z,6.36
2023-03-20T04:41:35.865Z,6.35
2023-03-20T04:44:06.292Z,6.33
2023-03-20T04:46:35.132Z,6.31
2023-03-20T04:49:06.631Z,6.31
2023-03-20T04:51:34.035Z,6.30
2023-03-20T04:54:01.397Z,6.30
2023-03-20T04:56:28.849Z,6.31
2023-03-20T04:59:08.312Z,6.34
2023-03-20T05:01:36.073Z,6.38
2023-03-20T05:04:03.339Z,6.42
2023-03-20T05:06:33.628Z,6.46
2023-03-20T05:09:01.589Z,6.52
2023-03-20T05:11:31.000Z,6.58
2023-03-20T05:14:33.509Z,6.63
2023-03-20T05:17:19.862Z,6.70
2023-03-20T05:20:07.358Z,6.80
2023-03-20T05:22:41.934Z,6.92
2023-03-20T05:25:19.352Z,7.06
2023-03-20T05:28:18.467Z,7.28
2023-03-20T05:31:09.696Z,7.76
2023-03-20T05:34:05.388Z,8.50
2023-03-20T05:36:58.444Z,9.21
2023-03-20T05:39:51.366Z,9.81
2023-03-20T05:42:34.227Z,10.43
2023-03-20T05:45:18.592Z,11.08
2023-03-20T05:48:11.358Z,11.27
2023-03-20T05:50:56.523Z,11.43
2023-03-20T05:53:55.752Z,11.79
2023-03-20T05:56:23.059Z,12.15
2023-03-20T05:59:10.754Z,12.16
2023-03-20T06:01:54.028Z,12.38
2023-03-20T06:04:25.951Z,12.54
2023-03-20T06:07:03.103Z,12.61
2023-03-20T06:09:30.204Z,12.91
2023-03-20T06:11:57.637Z,13.27
2023-03-20T06:14:25.166Z,13.61
2023-03-20T06:16:57.440Z,14.16
2023-03-20T06:19:26.119Z,14.75
2023-03-20T06:21:53.383Z,15.57
2023-03-20T06:24:21.499Z,16.36
2023-03-20T06:26:48.964Z,17.30
2023-03-20T06:29:16.109Z,18.13
2023-03-20T06:31:43.931Z,19.18
2023-03-20T06:34:14.920Z,20.12
2023-03-20T06:36:45.979Z,21.20
2023-03-20T06:39:19.562Z,22.52
2023-03-20T06:41:47.113Z,23.24
2023-03-20T06:44:14.448Z,23.97
2023-03-20T06:47:01.966Z,24.67
2023-03-20T06:49:29.151Z,24.90
2023-03-20T06:51:56.198Z,24.24
2023-03-20T06:54:26.198Z,23.46
2023-03-20T06:56:53.672Z,22.89
2023-03-20T06:59:21.757Z,22.13
2023-03-20T07:01:49.522Z,21.33
2023-03-20T07:04:17.431Z,20.60
2023-03-20T07:06:49.050Z,20.08
2023-03-20T07:09:17.798Z,19.53
2023-03-20T07:11:45.129Z,19.12
2023-03-20T07:14:12.667Z,18.79
2023-03-20T07:16:47.376Z,18.44
2023-03-20T07:19:15.329Z,18.20
2023-03-20T07:21:44.567Z,18.09
2023-03-20T07:24:12.181Z,18.36
2023-03-20T07:26:41.323Z,19.05
2023-03-20T07:29:08.538Z,20.03
2023-03-20T07:31:36.580Z,20.73
2023-03-20T07:34:16.701Z,20.88
2023-03-20T07:36:44.558Z,20.87
2023-03-20T07:39:13.290Z,20.90
2023-03-20T07:41:42.328Z,20.93
2023-03-20T07:44:10.630Z,20.88
2023-03-20T07:46:51.401Z,20.58
2023-03-20T07:49:18.898Z,20.20
2023-03-20T07:51:46.291Z,19.78
2023-03-20T07:54:14.010Z,19.45
2023-03-20T07:56:41.445Z,19.24
2023-03-20T07:59:08.759Z,19.21
2023-03-20T08:01:36.434Z,19.32
2023-03-20T08:04:03.843Z,19.85
2023-03-20T08:06:31.008Z,20.49
2023-03-20T08:08:59.017Z,21.21
2023-03-20T08:11:26.742Z,22.09
2023-03-20T08:13:53.737Z,23.06
2023-03-20T08:16:20.982Z,23.79
2023-03-20T08:18:48.479Z,24.19
2023-03-20T08:21:15.945Z,24.69
2023-03-20T08:23:43.343Z,25.23
2023-03-20T08:26:10.713Z,25.76
2023-03-20T08:28:46.955Z,26.17
2023-03-20T08:31:15.346Z,26.61
2023-03-20T08:33:42.778Z,27.06
2023-03-20T08:36:11.704Z,27.38
2023-03-20T08:38:39.052Z,27.64
2023-03-20T08:41:07.441Z,27.83
2023-03-20T08:43:34.736Z,27.92
2023-03-20T08:46:02.260Z,28.11
2023-03-20T08:48:29.652Z,28.32
2023-03-20T08:50:57.254Z,28.41
2023-03-20T08:53:24.776Z,28.63
2023-03-20T08:55:53.254Z,28.79
2023-03-20T08:58:21.120Z,28.77
2023-03-20T09:00:49.039Z,28.91
2023-03-20T09:03:18.265Z,29.01
2023-03-20T09:05:47.228Z,29.06
2023-03-20T09:08:15.138Z,29.23
2023-03-20T09:10:42.567Z,29.18
2023-03-20T09:13:25.754Z,29.00
2023-03-20T09:15:54.559Z,28.85
2023-03-20T09:18:22.314Z,28.69
2023-03-20T09:20:50.029Z,28.45
2023-03-20T09:23:19.050Z,28.10
2023-03-20T09:25:46.401Z,27.70
2023-03-20T09:28:13.572Z,27.09
2023-03-20T09:30:43.801Z,26.49
2023-03-20T09:33:11.641Z,25.96
2023-03-20T09:35:39.004Z,25.55
2023-03-20T09:38:06.925Z,25.07
2023-03-20T09:40:39.476Z,24.71
2023-03-20T09:43:17.870Z,24.42
2023-03-20T09:45:54.362Z,24.20
2023-03-20T09:48:24.673Z,24.00
2023-03-20T09:50:59.777Z,23.79
2023-03-20T09:53:33.097Z,23.24
2023-03-20T09:56:01.046Z,22.92
2023-03-20T09:58:32.549Z,22.65
2023-03-20T10:01:03.163Z,22.22
2023-03-20T10:03:38.175Z,21.87
2023-03-20T10:06:08.935Z,21.64
2023-03-20T10:08:39.116Z,21.37
2023-03-20T10:11:20.671Z,21.01
2023-03-20T10:14:00.411Z,20.71
2023-03-20T10:16:38.766Z,20.41
2023-03-20T10:19:12.718Z,20.13
2023-03-20T10:21:46.337Z,19.89
2023-03-20T10:24:21.276Z,19.68
2023-03-20T10:26:51.448Z,19.38
2023-03-20T10:29:26.557Z,19.10
2023-03-20T10:32:01.466Z,18.90
2023-03-20T10:34:42.786Z,18.81
2023-03-20T10:37:27.452Z,18.73
2023-03-20T10:40:10.702Z,18.66
2023-03-20T10:42:41.138Z,18.67
2023-03-20T10:45:16.370Z,18.66
2023-03-20T10:47:46.211Z,18.65
2023-03-20T10:50:20.653Z,18.74
2023-03-20T10:52:51.098Z,18.97
2023-03-20T10:55:21.553Z,19.22
2023-03-20T10:57:53.988Z,19.51
2023-03-20T11:00:24.791Z,19.95
2023-03-20T11:02:52.098Z,20.33
2023-03-20T11:05:31.810Z,20.78
2023-03-20T11:08:06.886Z,21.25
2023-03-20T11:10:37.230Z,21.68
2023-03-20T11:13:16.920Z,21.92
2023-03-20T11:15:44.140Z,22.15
2023-03-20T11:18:15.118Z,22.11
2023-03-20T11:20:48.466Z,22.05
2023-03-20T11:23:18.863Z,22.15
2023-03-20T11:25:54.332Z,22.18
2023-03-20T11:28:32.470Z,22.03
2023-03-20T11:31:05.690Z,22.05
2023-03-20T11:33:33.464Z,21.87
2023-03-20T11:36:01.399Z,21.65
2023-03-20T11:38:31.445Z,21.50
2023-03-20T11:40:58.652Z,21.43
2023-03-20T11:43:28.746Z,21.43
2023-03-20T11:46:00.893Z,21.41
2023-03-20T11:48:38.610Z,21.21
2023-03-20T11:51:10.154Z,20.97
2023-03-20T11:53:41.059Z,20.91
2023-03-20T11:56:13.371Z,20.88
2023-03-20T11:58:52.229Z,20.70
2023-03-20T12:01:19.331Z,20.62
2023-03-20T12:03:55.511Z,20.64
2023-03-20T12:06:27.456Z,20.67
2023-03-20T12:09:02.051Z,20.60
2023-03-20T12:11:44.683Z,20.47
2023-03-20T12:14:22.754Z,20.36
2023-03-20T12:16:54.734Z,20.25
2023-03-20T12:19:27.087Z,20.12
2023-03-20T12:22:02.170Z,20.08
2023-03-20T12:24:38.086Z,20.05
2023-03-20T12:27:18.601Z,19.88
2023-03-20T12:29:50.101Z,19.49
2023-03-20T12:32:24.463Z,19.17
2023-03-20T12:34:56.886Z,18.82
2023-03-20T12:37:25.221Z,18.49
2023-03-20T12:39:55.654Z,18.14
2023-03-20T12:42:34.432Z,17.79
2023-03-20T12:45:07.320Z,17.50
2023-03-20T12:48:16.971Z,17.20
2023-03-20T12:50:47.322Z,16.92
2023-03-20T12:53:30.537Z,16.71
2023-03-20T12:56:07.713Z,16.54
2023-03-20T12:58:42.140Z,16.43
2023-03-20T13:01:15.498Z,16.43
2023-03-20T13:03:55.461Z,16.44
2023-03-20T13:06:33.627Z,16.48
2023-03-20T13:09:27.574Z,16.50
2023-03-20T13:12:04.761Z,16.54
2023-03-20T13:14:43.129Z,16.58
2023-03-20T13:17:18.406Z,16.55
2023-03-20T13:19:56.645Z,16.41
2023-03-20T13:22:33.564Z,16.28
2023-03-20T13:25:03.742Z,16.16
2023-03-20T13:27:38.768Z,16.01
2023-03-20T13:30:14.897Z,15.86
2023-03-20T13:32:56.534Z,15.71
2023-03-20T13:35:41.161Z,15.54
2023-03-20T13:38:18.797Z,15.41
2023-03-20T13:40:48.311Z,15.29
2023-03-20T13:43:29.988Z,15.19
2023-03-20T13:46:04.872Z,15.06
2023-03-20T13:48:36.712Z,14.95
2023-03-20T13:51:12.203Z,14.88
2023-03-20T13:53:49.942Z,14.78
2023-03-20T13:56:28.339Z,14.69
2023-03-20T13:59:27.815Z,14.59
2023-03-20T14:02:02.308Z,14.46
2023-03-20T14:04:32.049Z,14.35
2023-03-20T14:07:00.619Z,14.28
2023-03-20T14:09:35.380Z,14.22
2023-03-20T14:12:06.390Z,14.15
2023-03-20T14:14:41.847Z,14.11
2023-03-20T14:17:22.649Z,14.08
2023-03-20T14:19:51.595Z,14.06
2023-03-20T14:22:22.296Z,14.06
2023-03-20T14:24:58.450Z,14.07
2023-03-20T14:27:45.204Z,14.07
2023-03-20T14:30:46.784Z,14.08
2023-03-20T14:33:31.296Z,14.11
2023-03-20T14:36:22.270Z,14.13
2023-03-20T14:38:58.075Z,14.12
2023-03-20T14:41:30.780Z,14.13
2023-03-20T14:44:17.036Z,14.13
2023-03-20T14:46:52.410Z,14.09
2023-03-20T14:49:48.143Z,14.06
2023-03-20T14:52:44.164Z,14.00
2023-03-20T14:55:49.244Z,13.92
2023-03-20T14:58:44.816Z,13.82
2023-03-20T15:01:20.106Z,13.74
2023-03-20T15:03:52.384Z,13.63
2023-03-20T15:06:21.336Z,13.57
2023-03-20T15:08:52.104Z,13.51
2023-03-20T15:11:21.251Z,13.46
2023-03-20T15:13:50.764Z,13.41
2023-03-20T15:16:26.543Z,13.36
2023-03-20T15:18:55.981Z,13.29
2023-03-20T15:21:30.978Z,13.26
2023-03-20T15:23:58.746Z,13.23
2023-03-20T15:26:27.132Z,13.18
2023-03-20T15:29:01.815Z,13.14
2023-03-20T15:31:32.845Z,13.07
2023-03-20T15:34:01.297Z,12.97
2023-03-20T15:36:31.600Z,12.88
2023-03-20T15:39:07.193Z,12.78
2023-03-20T15:41:38.956Z,12.68
2023-03-20T15:44:18.991Z,12.61
2023-03-20T15:46:55.029Z,12.54
2023-03-20T15:49:23.487Z,12.45
2023-03-20T15:51:52.688Z,12.37
2023-03-20T15:54:21.149Z,12.30
2023-03-20T15:56:58.238Z,12.18
2023-03-20T15:59:32.068Z,12.11
2023-03-20T16:02:01.951Z,12.01
2023-03-20T16:04:30.038Z,11.91
2023-03-20T16:07:00.239Z,11.81
2023-03-20T16:09:28.697Z,11.71
2023-03-20T16:12:01.456Z,11.64
2023-03-20T16:14:31.305Z,11.58
2023-03-20T16:17:01.189Z,11.53
2023-03-20T16:19:30.232Z,11.48
2023-03-20T16:22:00.660Z,11.40
2023-03-20T16:24:32.984Z,11.35
2023-03-20T16:27:00.737Z,11.29
2023-03-20T16:29:31.220Z,11.21
2023-03-20T16:32:04.124Z,11.15
2023-03-20T16:34:35.727Z,11.09
2023-03-20T16:37:08.842Z,11.06
2023-03-20T16:39:36.028Z,11.01
2023-03-20T16:42:22.894Z,10.98
2023-03-20T16:44:54.540Z,10.93
2023-03-20T16:47:24.927Z,10.89
2023-03-20T16:50:19.185Z,10.85
2023-03-20T16:52:58.571Z,10.81
2023-03-20T16:55:29.359Z,10.80
2023-03-20T16:58:00.280Z,10.78
2023-03-20T17:00:31.073Z,10.77
2023-03-20T17:03:08.588Z,10.75
2023-03-20T17:05:49.334Z,10.70
2023-03-20T17:08:18.851Z,10.67
2023-03-20T17:10:51.600Z,10.65
2023-03-20T17:13:18.945Z,10.62
2023-03-20T17:15:47.121Z,10.60
2023-03-20T17:18:16.261Z,10.59
2023-03-20T17:20:43.839Z,10.59
2023-03-20T17:23:16.619Z,10.57
2023-03-20T17:25:44.300Z,10.54
2023-03-20T17:28:17.166Z,10.50
2023-03-20T17:30:46.240Z,10.46
2023-03-20T17:33:15.684Z,10.43
2023-03-20T17:35:43.140Z,10.39
2023-03-20T17:38:16.171Z,10.35
2023-03-20T17:40:43.248Z,10.30
2023-03-20T17:43:13.014Z,10.24
2023-03-20T17:45:40.768Z,10.19
2023-03-20T17:48:15.732Z,10.14
2023-03-20T17:50:43.117Z,10.09
2023-03-20T17:53:14.630Z,10.03
2023-03-20T17:55:41.877Z,9.98
2023-03-20T17:58:13.223Z,9.95
2023-03-20T18:00:49.830Z,9.91
2023-03-20T18:03:18.478Z,9.89
2023-03-20T18:05:46.342Z,9.92
2023-03-20T18:08:20.096Z,9.93
2023-03-20T18:10:47.510Z,9.93
2023-03-20T18:13:14.870Z,9.93
2023-03-20T18:15:42.661Z,9.93
2023-03-20T18:18:10.664Z,9.92
2023-03-20T18:20:41.388Z,9.91
2023-03-20T18:23:09.301Z,9.89
2023-03-20T18:25:37.067Z,9.88
2023-03-20T18:28:06.573Z,9.86
2023-03-20T18:30:37.789Z,9.85
2023-03-20T18:33:06.386Z,9.83
2023-03-20T18:35:37.518Z,9.83
2023-03-20T18:38:06.233Z,9.82
2023-03-20T18:40:37.178Z,9.82
2023-03-20T18:43:07.456Z,9.81
2023-03-20T18:45:38.893Z,9.82
2023-03-20T18:48:07.275Z,9.80
2023-03-20T18:50:37.979Z,9.79
2023-03-20T18:53:07.481Z,9.78
2023-03-20T18:55:35.745Z,9.78
2023-03-20T18:58:04.231Z,9.79
2023-03-20T19:00:38.179Z,9.79
2023-03-20T19:03:07.587Z,9.79
2023-03-20T19:05:35.001Z,9.80
2023-03-20T19:08:05.331Z,9.80
2023-03-20T19:10:36.252Z,9.79
2023-03-20T19:13:05.413Z,9.77
2023-03-20T19:15:36.281Z,9.75
2023-03-20T19:18:04.880Z,9.75
2023-03-20T19:20:37.337Z,9.74
2023-03-20T19:23:07.366Z,9.73
2023-03-20T19:25:38.952Z,9.68
2023-03-20T19:28:07.724Z,9.67
2023-03-20T19:30:38.046Z,9.64
2023-03-20T19:33:14.702Z,9.60
2023-03-20T19:36:03.274Z,9.55
2023-03-20T19:38:31.501Z,9.52
2023-03-20T19:41:00.096Z,9.49
2023-03-20T19:43:30.626Z,9.46
2023-03-20T19:45:59.255Z,9.44
2023-03-20T19:48:46.005Z,9.41
2023-03-20T19:51:18.302Z,9.37
2023-03-20T19:53:46.703Z,9.35
2023-03-20T19:56:14.780Z,9.33
2023-03-20T19:58:43.414Z,9.33
2023-03-20T20:01:18.645Z,9.33
2023-03-20T20:03:46.659Z,9.33
2023-03-20T20:06:14.562Z,9.34
2023-03-20T20:08:48.730Z,9.35
2023-03-20T20:11:16.986Z,9.36
2023-03-20T20:14:07.182Z,9.41
2023-03-20T20:16:34.033Z,9.45
2023-03-20T20:19:01.628Z,9.48
2023-03-20T20:24:17.413Z,9.53
2023-03-20T20:26:53.765Z,9.54
2023-03-20T20:29:22.264Z,9.56
2023-03-20T20:31:49.451Z,9.56
2023-03-20T20:39:51.987Z,9.55
2023-03-20T20:42:20.615Z,9.55
2023-03-20T20:44:47.799Z,9.54
2023-03-20T20:47:15.492Z,9.55
2023-03-20T20:49:43.224Z,9.54
2023-03-20T20:52:11.400Z,9.53
2023-03-20T20:54:42.382Z,9.50
2023-03-20T20:57:10.693Z,9.47
2023-03-20T20:59:38.340Z,9.45
2023-03-20T21:02:10.780Z,9.43
2023-03-20T21:04:38.247Z,9.40
2023-03-20T21:07:11.056Z,9.36
2023-03-20T21:09:42.573Z,9.34
2023-03-20T21:12:34.759Z,9.31
2023-03-20T21:15:06.853Z,9.28
2023-03-20T21:17:34.223Z,9.27
2023-03-20T21:20:15.234Z,9.26
2023-03-20T21:22:42.531Z,9.25
2023-03-20T21:25:15.022Z,9.26
2023-03-20T21:27:42.591Z,9.26
2023-03-20T21:30:11.545Z,9.26
2023-03-20T21:32:39.987Z,9.27
2023-03-20T21:35:18.789Z,9.27
2023-03-20T21:38:37.867Z,9.27
2023-03-20T21:40:36.834Z,9.26
2023-03-20T21:43:04.896Z,9.25
2023-03-20T21:46:19.045Z,9.22
2023-03-20T21:48:54.582Z,9.19
2023-03-20T21:54:51.270Z,9.14
2023-03-20T21:57:23.149Z,9.13
2023-03-20T22:02:25.308Z,9.06
2023-03-20T22:05:41.840Z,9.06
2023-03-20T22:11:42.406Z,9.02
2023-03-20T22:14:37.220Z,8.97
2023-03-20T22:17:25.870Z,8.94
2023-03-20T22:28:15.770Z,8.87
2023-03-20T22:34:16.214Z,8.86
2023-03-20T22:47:16.977Z,8.82
2023-03-20T22:49:44.455Z,8.80
2023-03-20T22:52:37.869Z,8.78
2023-03-20T22:55:11.399Z,8.76
2023-03-20T22:57:45.532Z,8.72
2023-03-20T23:00:18.855Z,8.69
2023-03-20T23:02:47.595Z,8.67
2023-03-20T23:05:15.157Z,8.65
2023-03-20T23:07:43.239Z,8.63
2023-03-20T23:10:14.420Z,8.61
2023-03-20T23:12:44.071Z,8.58
2023-03-20T23:15:12.967Z,8.54
2023-03-20T23:17:40.290Z,8.52
2023-03-20T23:20:14.450Z,8.49
2023-03-20T23:22:44.363Z,8.46
2023-03-20T23:25:18.637Z,8.42
2023-03-20T23:27:54.668Z,8.39
2023-03-20T23:30:38.107Z,8.35
2023-03-20T23:33:07.784Z,8.32
2023-03-20T23:35:37.698Z,8.30
2023-03-20T23:38:04.906Z,8.29
2023-03-20T23:40:32.390Z,8.30
2023-03-20T23:42:59.574Z,8.29
2023-03-20T23:45:26.834Z,8.29
2023-03-20T23:47:54.256Z,8.28
2023-03-20T23:50:42.830Z,8.27
2023-03-20T23:53:19.989Z,8.29
2023-03-20T23:55:49.255Z,8.29
2023-03-20T23:58:18.223Z,8.28
